Flight Track Log - Related Links

Times and Time Zones

All times are in EDT time to prevent confusion due to time zone crossing. See the UAL258 flight status page for this flight to view local times or setup timezone preferences in your user account.

Time Position Orientation Groundspeed Altitude Reporting Facility
EDT Latitude Longitude Course Direction KTS km/h meters Rate Location/Type
Sat 20:38:20 37.6333 -122.3833 26° Northeast 160 296 488  Level Northern Cal TRACON
Sat 20:40:28 37.7303 -122.3225 26° Northeast 247 457 1,829 755 Climbing Oakland Center
Sat 20:41:29 37.8067 -122.3208 North 265 491 2,865 750 Climbing Oakland Center
Sat 20:42:30 37.8928 -122.3153 North 304 563 3,353 645 Climbing Oakland Center
Sat 20:43:31 37.9908 -122.3128 North 354 655 4,176 816 Climbing Oakland Center
Sat 20:44:31 38.1108 -122.3092 North 365 676 4,999 704 Climbing Oakland Center
Sat 20:45:33 38.2178 -122.3056 North 384 711 5,608 585 Climbing Oakland Center
Sat 20:46:33 38.3289 -122.3006 North 398 737 6,187 544 Climbing Oakland Center
Sat 20:47:34 38.4436 -122.2978 North 411 761 6,706 525 Climbing Oakland Center
Sat 20:48:35 38.5611 -122.2942 North 423 784 7,254 480 Climbing Oakland Center
Sat 20:49:36 38.6806 -122.2900 North 431 798 7,681 454 Climbing Oakland Center
Sat 20:50:36 38.7919 -122.2864 North 440 814 8,169 454 Climbing Oakland Center
Sat 20:51:37 38.9442 -122.2881 360° North 450 834 8,595 390 Climbing Oakland Center
Sat 20:52:38 39.0719 -122.2883 360° North 454 840 8,961 315 Climbing Oakland Center
Sat 20:53:39 39.2042 -122.2875 360° North 468 867 9,235 375 Climbing Oakland Center
Sat 20:54:40 39.3358 -122.2875 360° North 470 871 9,723 405 Climbing Oakland Center
Sat 20:55:41 39.4661 -122.2872 360° North 466 863 10,058 317 Climbing Oakland Center
Sat 20:56:41 39.5939 -122.2872 360° North 468 867 10,363 151 Climbing Oakland Center
Sat 20:57:42 39.7225 -122.2864 360° North 463 858 10,363  Level Oakland Center
Sat 20:58:43 39.8525 -122.2872 360° North 467 864 10,363  Level Oakland Center
Sat 20:59:44 39.9814 -122.2872 360° North 464 859 10,363  Level Oakland Center
Sat 21:00:45 40.1156 -122.2869 360° North 463 858 10,363  Level Oakland Center
Sat 21:01:46 40.2539 -122.2864 360° North 465 861 10,363  Level Oakland Center
Sat 21:02:46 40.3817 -122.2872 360° North 462 856 10,363  Level Oakland Center
Sat 21:03:47 40.5117 -122.2881 360° North 465 861 10,363  Level Oakland Center
Sat 21:04:48 40.6425 -122.2861 North 470 871 10,363  Level Oakland Center
Sat 21:05:49 40.7736 -122.2867 360° North 471 872 10,363  Level Oakland Center
Sat 21:06:50 40.9058 -122.2864 360° North 474 877 10,363  Level Oakland Center
Sat 21:07:51 41.0375 -122.2864 360° North 473 875 10,363  Level Oakland Center
Sat 21:08:52 41.1694 -122.2878 360° North 474 877 10,363  Level Oakland Center
Sat 21:09:52 41.3022 -122.2878 360° North 477 884 10,363  Level Oakland Center
Sat 21:10:27 41.3822 -122.2894 359° North 476 882 10,363  Level Seattle Center
Sat 21:11:27 41.5158 -122.2872 North 471 872 10,363 -15 Level Seattle Center
Sat 21:12:28 41.6458 -122.2869 360° North 465 861 10,333  Descending Seattle Center
Sat 21:13:29 41.7783 -122.2858 360° North 472 874 10,363 15 Climbing Seattle Center
Sat 21:14:29 41.9114 -122.2850 360° North 475 880 10,363  Level Seattle Center
Sat 21:15:30 42.0464 -122.2858 360° North 479 887 10,363  Level Seattle Center
Sat 21:16:30 42.1819 -122.2842 North 478 885 10,363  Level Seattle Center
Sat 21:17:31 42.3156 -122.2836 360° North 475 880 10,363  Level Seattle Center
Sat 21:18:31 42.4486 -122.2839 360° North 473 875 10,363 -15 Level Seattle Center
Sat 21:19:32 42.5803 -122.2842 360° North 472 874 10,333  Descending Seattle Center
Sat 21:20:32 42.7128 -122.2836 360° North 474 877 10,363 15 Climbing Seattle Center
Sat 21:21:33 42.8386 -122.2811 North 476 882 10,363  Level Seattle Center
Sat 21:22:33 42.9708 -122.2814 360° North 475 880 10,363  Level Seattle Center
Sat 21:23:34 43.1019 -122.2814 360° North 473 875 10,363  Level Seattle Center
Sat 21:24:34 43.2603 -122.2817 360° North 472 874 10,363  Level Seattle Center
Sat 21:25:35 43.3911 -122.2808 360° North 471 872 10,363  Level Seattle Center
Sat 21:26:35 43.5214 -122.2797 360° North 470 871 10,363  Level Seattle Center
Sat 21:27:36 43.6519 -122.2811 360° North 471 872 10,363  Level Seattle Center
Sat 21:28:36 43.7817 -122.2825 360° North 468 867 10,363  Level Seattle Center
Sat 21:29:37 43.9122 -122.2806 North 473 875 10,363  Level Seattle Center
Sat 21:30:37 44.0425 -122.2817 360° North 471 872 10,363  Level Seattle Center
Sat 21:31:38 44.1739 -122.2819 360° North 474 877 10,363  Level Seattle Center
Sat 21:32:38 44.3044 -122.2828 360° North 473 875 10,363  Level Seattle Center
Sat 21:33:39 44.4344 -122.2817 360° North 470 871 10,363  Level Seattle Center
Sat 21:34:39 44.5642 -122.2811 360° North 468 867 10,363  Level Seattle Center
Sat 21:35:40 44.6936 -122.2825 360° North 468 867 10,363  Level Seattle Center
Sat 21:36:40 44.8228 -122.2819 360° North 467 864 10,363 -15 Level Seattle Center
Sat 21:37:41 44.9597 -122.2814 360° North 469 869 10,333  Descending Seattle Center
Sat 21:38:41 45.0900 -122.2814 360° North 472 874 10,363  Climbing Seattle Center
Sat 21:39:42 45.2211 -122.2814 360° North 473 875 10,333  Descending Seattle Center
Sat 21:40:42 45.3508 -122.2806 360° North 470 871 10,363 15 Climbing Seattle Center
Sat 21:41:43 45.4819 -122.2794 360° North 474 877 10,363  Level Seattle Center
Sat 21:42:43 45.6125 -122.2794 360° North 472 874 10,363  Level Seattle Center
Sat 21:43:44 45.7439 -122.2794 360° North 474 877 10,363  Level Seattle Center
Sat 21:44:44 45.8756 -122.2786 360° North 475 880 10,363  Level Seattle Center
Sat 21:45:45 46.0078 -122.2781 360° North 478 885 10,363  Level Seattle Center
Sat 21:46:45 46.1392 -122.2786 360° North 475 880 10,363  Level Seattle Center
Sat 21:47:46 46.2711 -122.2767 North 473 875 10,363  Level Seattle Center
Sat 21:48:46 46.4278 -122.2767 360° North 474 877 10,363  Level Seattle Center
Sat 21:49:47 46.5575 -122.2761 360° North 471 872 10,363  Level Seattle Center
Sat 21:50:47 46.6864 -122.2756 360° North 469 869 10,363  Level Seattle Center
Sat 21:51:48 46.8158 -122.2778 359° North 469 869 10,363  Level Seattle Center
Sat 21:52:48 46.9447 -122.2772 360° North 469 869 10,363  Level Seattle Center
Sat 21:53:49 47.0742 -122.2772 360° North 471 872 10,363  Level Seattle Center
Sat 21:54:49 47.2033 -122.2786 360° North 470 871 10,363  Level Seattle Center
Sat 21:55:50 47.3333 -122.2794 360° North 472 874 10,363  Level Seattle Center
Sat 21:56:50 47.4619 -122.2789 360° North 470 871 10,363  Level Seattle Center
Sat 21:57:51 47.5889 -122.2775 360° North 469 869 10,363 -181 Level Seattle Center
Sat 21:58:51 47.7389 -122.2783 360° North 469 869 9,997 -514 Descending Seattle Center
Sat 21:59:52 47.8683 -122.2781 360° North 474 877 9,327 -741 Descending Seattle Center
Sat 22:00:52 47.9989 -122.3003 354° North 480 888 8,504 -816 Descending Seattle Center
Sat 22:01:53 48.1247 -122.3369 349° North 472 874 7,681 -846 Descending Seattle Center
Sat 22:02:53 48.2469 -122.3728 349° North 459 850 6,797 -907 Descending Seattle Center
Sat 22:03:54 48.3658 -122.4078 349° North 447 827 5,852 -922 Descending Seattle Center
Sat 22:04:54 48.4822 -122.4414 349° North 433 801 4,938 -922 Descending Seattle Center
Sat 22:05:55 48.5961 -122.4761 349° North 427 790 3,993 -937 Descending Seattle Center
Sat 22:06:14 48.6333 -122.4833 353° North 410 760 3,688 -324 Descending Vancouver Center
Sat 22:07:14 48.7167 -122.5333 338° Northwest 330 612 3,566 -381 Descending Vancouver Center
Sat 22:08:14 48.7667 -122.6333 307° West 300 555 2,926 -549 Descending Vancouver Center
Sat 22:09:14 48.8167 -122.7333 307° West 290 538 2,469 -244 Descending Vancouver Center
Sat 22:10:14 48.8500 -122.8167 301° West 280 518 2,438 -15 Descending Vancouver Center
Sat 22:11:14 48.9000 -122.9167 307° West 250 463 2,438 -290 Level Vancouver Center
Sat 22:12:14 48.9333 -122.9833 307° West 250 463 1,859 -625 Descending Vancouver Center
Sat 22:13:14 49.0000 -122.9833 360° North 240 444 1,189 -472 Descending Vancouver Center
Sat 22:14:14 49.0667 -122.9333 26° Northeast 230 426 914 -152 Descending Vancouver Center
Sat 22:15:14 49.1167 -122.9333 360° North 220 407 884 -91 Descending Vancouver Center
Sat 22:16:14 49.1500 -122.9833 316° Northwest 200 370 732 -152 Descending Vancouver Center

Login

Don't have an account? Register now (free) for customized features, flight alerts, and more!